createdAt,value
2023-01-13T19:39:04.874Z,6.30
2023-01-13T19:41:31.539Z,5.65
2023-01-13T19:43:58.184Z,5.20
2023-01-13T19:46:25.116Z,5.45
2023-01-13T19:48:51.794Z,5.30
2023-01-13T19:51:18.461Z,5.00
2023-01-13T19:53:45.126Z,5.32
2023-01-13T19:56:11.782Z,4.72
2023-01-13T19:58:38.462Z,5.53
2023-01-13T20:01:05.183Z,5.20
2023-01-13T20:03:31.893Z,4.70
2023-01-13T20:05:58.552Z,4.85
2023-01-13T20:08:25.187Z,5.18
2023-01-13T20:10:51.869Z,6.28
2023-01-13T20:13:18.535Z,5.30
2023-01-13T20:15:45.255Z,4.80
2023-01-13T20:18:11.939Z,5.10
2023-01-13T20:20:39.062Z,4.80
2023-01-13T20:23:05.722Z,4.85
2023-01-13T20:25:32.441Z,4.80
2023-01-13T20:27:59.132Z,5.35
2023-01-13T20:30:25.815Z,5.00
2023-01-13T20:32:52.470Z,5.70
2023-01-13T20:35:19.118Z,4.20
2023-01-13T20:37:45.958Z,4.80
2023-01-13T20:40:12.608Z,5.05
2023-01-13T20:42:39.450Z,5.35
2023-01-13T20:45:06.101Z,5.70
2023-01-13T20:47:32.979Z,4.93
2023-01-13T20:49:59.628Z,4.73
2023-01-13T20:52:26.501Z,4.47
2023-01-13T20:54:53.166Z,4.90
2023-01-13T20:57:20.118Z,4.32
2023-01-13T20:59:47.098Z,4.32
2023-01-13T21:02:13.955Z,5.03
2023-01-13T21:04:40.665Z,4.40
2023-01-13T21:07:07.559Z,4.40
2023-01-13T21:09:34.196Z,4.50
2023-01-13T21:12:00.823Z,4.10
2023-01-13T21:14:27.466Z,4.23
2023-01-13T21:16:54.108Z,4.35
2023-01-13T21:19:20.767Z,4.20
2023-01-13T21:21:47.410Z,4.78
2023-01-13T21:24:14.056Z,4.78
2023-01-13T21:26:40.690Z,4.83
2023-01-13T21:29:07.340Z,4.18
2023-01-13T21:31:34.008Z,5.05
2023-01-13T21:34:00.682Z,4.30
2023-01-13T21:36:27.341Z,4.30
2023-01-13T21:38:53.995Z,5.17
2023-01-13T21:41:20.648Z,5.25
2023-01-13T21:43:47.541Z,4.80
2023-01-13T21:46:14.466Z,4.53
2023-01-13T21:48:41.170Z,5.57
2023-01-13T21:51:07.833Z,4.70
2023-01-13T21:53:34.528Z,5.90
2023-01-13T21:56:01.244Z,6.28
2023-01-13T21:58:27.939Z,6.22
2023-01-13T22:00:54.722Z,5.90
2023-01-13T22:03:21.424Z,5.47
2023-01-13T22:05:48.305Z,5.75
2023-01-13T22:08:15.185Z,5.00
2023-01-13T22:10:41.858Z,4.85
2023-01-13T22:13:08.710Z,4.53
2023-01-13T22:15:35.370Z,4.30
2023-01-13T22:18:02.031Z,4.60
2023-01-13T22:20:28.694Z,4.35
2023-01-13T22:22:55.564Z,4.35
2023-01-13T22:25:22.221Z,4.20
2023-01-13T22:27:48.854Z,4.03
2023-01-13T22:30:15.541Z,3.97
2023-01-13T22:32:42.230Z,3.97
2023-01-13T22:35:08.875Z,3.70
2023-01-13T22:37:38.700Z,3.95
2023-01-13T22:40:05.351Z,4.00
2023-01-13T22:42:32.015Z,4.00
2023-01-13T22:44:58.893Z,3.70
2023-01-13T22:47:25.566Z,3.60
2023-01-13T22:49:52.222Z,3.70
2023-01-13T22:52:18.877Z,3.80
2023-01-13T22:54:45.527Z,3.83
2023-01-13T22:57:12.629Z,3.45
2023-01-13T22:59:39.338Z,3.80
2023-01-13T23:02:05.994Z,4.10
2023-01-13T23:04:32.987Z,4.03
2023-01-13T23:06:59.680Z,3.80
2023-01-13T23:09:26.311Z,3.75
2023-01-13T23:11:52.959Z,3.42
2023-01-13T23:14:19.612Z,3.80
2023-01-13T23:16:46.284Z,3.37
2023-01-13T23:19:12.974Z,3.50
2023-01-13T23:21:39.655Z,3.35
2023-01-13T23:24:06.539Z,3.50
2023-01-13T23:26:33.448Z,3.42
2023-01-13T23:29:00.140Z,3.40
2023-01-13T23:31:26.999Z,3.20
2023-01-13T23:33:53.641Z,3.30
2023-01-13T23:36:20.493Z,3.47
2023-01-13T23:38:47.172Z,3.28
2023-01-13T23:41:14.133Z,2.80
2023-01-13T23:43:40.771Z,3.20
2023-01-13T23:46:07.515Z,3.05
2023-01-13T23:48:34.251Z,2.97
2023-01-13T23:51:00.912Z,3.00
2023-01-13T23:53:27.767Z,2.70
2023-01-13T23:55:54.439Z,2.60
2023-01-13T23:58:21.118Z,2.70
